createdAt,value
2023-02-24T00:00:33.922Z,6.20
2023-02-24T00:03:15.652Z,6.20
2023-02-24T00:05:44.679Z,6.10
2023-02-24T00:08:12.736Z,6.20
2023-02-24T00:10:40.796Z,6.30
2023-02-24T00:13:08.807Z,6.10
2023-02-24T00:15:36.735Z,6.30
2023-02-24T00:18:07.262Z,6.20
2023-02-24T00:20:35.776Z,6.20
2023-02-24T00:23:04.027Z,6.20
2023-02-24T00:25:32.169Z,6.20
2023-02-24T00:28:01.901Z,6.20
2023-02-24T00:30:32.845Z,6.20
2023-02-24T00:33:02.882Z,6.20
2023-02-24T00:35:32.561Z,6.20
2023-02-24T00:38:01.024Z,6.20
2023-02-24T00:40:30.411Z,6.20
2023-02-24T00:42:59.060Z,6.20
2023-02-24T00:45:30.440Z,6.20
2023-02-24T00:47:58.447Z,6.40
2023-02-24T00:50:26.743Z,6.20
2023-02-24T00:52:56.341Z,6.20
2023-02-24T00:55:24.936Z,6.30
2023-02-24T00:57:52.900Z,6.40
2023-02-24T01:00:21.970Z,6.30
2023-02-24T01:02:50.070Z,6.20
2023-02-24T01:05:18.182Z,6.20
2023-02-24T01:07:46.397Z,6.30
2023-02-24T01:10:18.321Z,6.20
2023-02-24T01:12:54.128Z,6.30
2023-02-24T01:15:23.710Z,6.30
2023-02-24T01:17:51.726Z,6.20
2023-02-24T01:20:19.917Z,6.30
2023-02-24T01:22:50.530Z,6.20
2023-02-24T01:25:21.188Z,6.30
2023-02-24T01:27:49.360Z,6.30
2023-02-24T01:30:18.535Z,6.20
2023-02-24T01:32:48.578Z,6.30
2023-02-24T01:35:16.960Z,6.30
2023-02-24T01:37:45.520Z,6.30
2023-02-24T01:40:18.997Z,6.20
2023-02-24T01:42:50.986Z,6.30
2023-02-24T01:45:28.504Z,6.20
2023-02-24T01:48:01.642Z,6.30
2023-02-24T01:50:30.145Z,6.20
2023-02-24T01:53:01.973Z,6.30
2023-02-24T01:55:34.276Z,6.30
2023-02-24T01:58:09.802Z,6.30
2023-02-24T02:00:45.318Z,6.20
2023-02-24T02:03:24.344Z,6.20
2023-02-24T02:05:54.049Z,6.20
2023-02-24T02:08:25.302Z,6.20
2023-02-24T02:10:59.194Z,6.20
2023-02-24T02:13:30.524Z,6.20
2023-02-24T02:16:13.725Z,6.20
2023-02-24T02:18:51.346Z,6.20
2023-02-24T02:21:41.270Z,6.20
2023-02-24T02:24:36.892Z,6.10
2023-02-24T02:27:32.087Z,6.20
2023-02-24T02:30:28.727Z,6.20
2023-02-24T02:33:48.967Z,6.20
2023-02-24T02:36:26.326Z,6.20
2023-02-24T02:38:59.230Z,6.20
2023-02-24T02:41:32.082Z,6.20
2023-02-24T02:44:08.769Z,6.10
2023-02-24T02:46:43.480Z,6.20
2023-02-24T02:49:18.033Z,6.10
2023-02-24T02:51:52.693Z,6.20
2023-02-24T02:54:28.217Z,6.20
2023-02-24T02:57:01.857Z,6.20
2023-02-24T02:59:33.302Z,6.20
2023-02-24T03:02:11.906Z,6.20
2023-02-24T03:04:43.520Z,6.20
2023-02-24T03:07:17.216Z,6.20
2023-02-24T03:09:50.518Z,6.20
2023-02-24T03:12:23.212Z,6.10
2023-02-24T03:14:57.555Z,6.20
2023-02-24T03:17:27.907Z,6.20
2023-02-24T03:20:02.010Z,6.20
2023-02-24T03:22:37.783Z,6.20
2023-02-24T03:25:07.039Z,6.20
2023-02-24T03:27:42.256Z,6.20
2023-02-24T03:30:17.216Z,6.20
2023-02-24T03:32:56.148Z,6.20
2023-02-24T03:35:27.328Z,6.30
2023-02-24T03:37:59.474Z,6.20
2023-02-24T03:40:36.115Z,6.20
2023-02-24T03:43:07.664Z,6.20
2023-02-24T03:45:39.988Z,6.10
2023-02-24T03:48:11.973Z,6.20
2023-02-24T03:50:40.888Z,6.20
2023-02-24T03:53:30.509Z,6.20
2023-02-24T03:56:11.104Z,6.20
2023-02-24T03:58:49.310Z,6.20
2023-02-24T04:01:26.425Z,6.20
2023-02-24T04:04:04.635Z,6.20
2023-02-24T04:06:42.333Z,6.20
2023-02-24T04:09:18.130Z,6.00
2023-02-24T04:11:51.064Z,6.10
2023-02-24T04:14:25.094Z,6.10
2023-02-24T04:17:01.209Z,6.10
2023-02-24T04:19:32.632Z,6.10
2023-02-24T04:22:01.865Z,6.10
2023-02-24T04:24:33.799Z,6.10
2023-02-24T04:27:06.621Z,5.90
2023-02-24T04:29:39.105Z,6.10
2023-02-24T04:32:10.801Z,6.20
2023-02-24T04:34:40.480Z,6.10
2023-02-24T04:37:08.576Z,6.10
2023-02-24T04:39:38.949Z,6.10
2023-02-24T04:42:07.855Z,6.10
2023-02-24T04:44:36.314Z,6.10
2023-02-24T04:47:04.887Z,6.10
2023-02-24T04:49:34.027Z,6.10
2023-02-24T04:52:02.477Z,6.10
2023-02-24T04:54:30.666Z,6.10
2023-02-24T04:56:59.970Z,6.10
2023-02-24T04:59:28.789Z,6.30
2023-02-24T05:02:01.561Z,6.10
2023-02-24T05:04:31.741Z,6.10
2023-02-24T05:07:00.589Z,6.10
2023-02-24T05:09:30.232Z,6.10
2023-02-24T05:12:00.492Z,6.10
2023-02-24T05:14:28.653Z,6.30
2023-02-24T05:17:00.633Z,6.10
2023-02-24T05:19:46.387Z,6.10
2023-02-24T05:22:16.986Z,6.10
2023-02-24T05:24:46.199Z,6.10
2023-02-24T05:27:17.274Z,6.10
2023-02-24T05:29:45.953Z,6.10
2023-02-24T05:32:16.346Z,6.00
2023-02-24T05:34:44.458Z,6.10
2023-02-24T05:37:12.563Z,6.10
2023-02-24T05:39:41.074Z,6.10
2023-02-24T05:42:09.287Z,6.10
2023-02-24T05:44:38.720Z,6.30
2023-02-24T05:47:06.874Z,6.10
2023-02-24T05:49:38.790Z,6.20
2023-02-24T05:52:10.069Z,6.10
2023-02-24T05:54:40.092Z,6.10
2023-02-24T05:57:12.171Z,6.20
2023-02-24T05:59:44.766Z,6.10
2023-02-24T06:02:16.109Z,6.10
2023-02-24T06:04:53.901Z,6.10
2023-02-24T06:07:25.021Z,6.00
2023-02-24T06:09:56.600Z,6.00
2023-02-24T06:12:27.358Z,5.90
2023-02-24T06:14:58.318Z,5.80
2023-02-24T06:17:26.442Z,5.70
2023-02-24T06:19:55.261Z,5.70
2023-02-24T06:22:24.915Z,5.70
2023-02-24T06:24:54.489Z,5.60
2023-02-24T06:27:24.911Z,5.60
2023-02-24T06:29:55.380Z,5.60
2023-02-24T06:32:26.871Z,5.60
2023-02-24T06:34:55.593Z,5.50
2023-02-24T06:37:23.772Z,5.50
2023-02-24T06:39:51.910Z,5.50
2023-02-24T06:42:20.210Z,5.50
2023-02-24T06:44:48.978Z,5.50
2023-02-24T06:47:18.025Z,5.50
2023-02-24T06:49:47.986Z,5.60
2023-02-24T06:52:19.026Z,5.60
2023-02-24T06:54:49.538Z,5.70
2023-02-24T06:57:17.853Z,5.50
2023-02-24T06:59:46.270Z,5.60
2023-02-24T07:02:14.400Z,5.50
2023-02-24T07:04:44.696Z,5.60
2023-02-24T07:07:17.535Z,5.50
2023-02-24T07:09:45.826Z,5.50
2023-02-24T07:12:20.845Z,5.50
2023-02-24T07:14:50.377Z,5.50
2023-02-24T07:17:20.034Z,5.50
2023-02-24T07:19:48.065Z,5.40
2023-02-24T07:22:25.203Z,5.40
2023-02-24T07:25:00.525Z,5.40
2023-02-24T07:27:30.837Z,5.30
2023-02-24T07:29:59.245Z,5.20
2023-02-24T07:32:28.048Z,5.20
2023-02-24T07:34:56.179Z,5.20
2023-02-24T07:37:25.760Z,5.10
2023-02-24T07:39:53.878Z,5.10
2023-02-24T07:42:22.514Z,5.10
2023-02-24T07:44:51.865Z,4.90
2023-02-24T07:47:21.514Z,4.90
2023-02-24T07:49:51.144Z,4.90
2023-02-24T07:52:19.111Z,5.00
2023-02-24T07:54:49.728Z,5.00
2023-02-24T07:57:19.003Z,5.00
2023-02-24T07:59:48.291Z,4.90
2023-02-24T08:02:18.512Z,4.90
2023-02-24T08:04:50.401Z,4.90
2023-02-24T08:07:24.762Z,4.80
2023-02-24T08:10:12.126Z,4.80
2023-02-24T08:12:42.814Z,4.80
2023-02-24T08:15:22.133Z,4.70
2023-02-24T08:17:50.231Z,4.70
2023-02-24T08:20:26.402Z,4.80
2023-02-24T08:22:55.889Z,4.70
2023-02-24T08:25:36.071Z,4.70
2023-02-24T08:28:09.370Z,4.70
2023-02-24T08:30:39.989Z,4.70
2023-02-24T08:33:10.124Z,4.70
2023-02-24T08:35:45.158Z,4.70
2023-02-24T08:38:15.677Z,4.80
2023-02-24T08:40:55.164Z,4.80
2023-02-24T08:43:33.186Z,4.80
2023-02-24T08:46:13.135Z,4.90
2023-02-24T08:48:43.257Z,4.80
2023-02-24T08:51:17.936Z,4.80
2023-02-24T08:53:47.518Z,4.90
2023-02-24T08:56:24.426Z,4.90
2023-02-24T08:58:57.317Z,5.00
2023-02-24T09:01:34.558Z,5.10
2023-02-24T09:04:05.902Z,5.20
2023-02-24T09:06:40.655Z,5.10
2023-02-24T09:09:22.604Z,5.20
2023-02-24T09:11:56.096Z,5.20
2023-02-24T09:14:28.500Z,5.20
2023-02-24T09:17:06.169Z,5.30
2023-02-24T09:19:55.766Z,5.20
2023-02-24T09:22:41.064Z,5.40
2023-02-24T09:25:24.037Z,5.40
2023-02-24T09:27:57.128Z,5.30
2023-02-24T09:30:37.925Z,5.30
2023-02-24T09:33:17.849Z,5.40
2023-02-24T09:36:00.596Z,5.20
2023-02-24T09:38:57.942Z,5.20
2023-02-24T09:41:53.248Z,5.20
2023-02-24T09:44:28.202Z,5.20
2023-02-24T09:47:08.939Z,5.30
2023-02-24T09:49:50.711Z,5.20
2023-02-24T09:52:20.382Z,5.20
2023-02-24T09:55:10.601Z,5.20
2023-02-24T09:58:03.831Z,5.20
2023-02-24T10:00:43.987Z,5.20
2023-02-24T10:03:20.643Z,5.10
2023-02-24T10:05:59.105Z,5.10
2023-02-24T10:08:35.386Z,5.10
2023-02-24T10:11:08.098Z,5.30
2023-02-24T10:13:42.603Z,5.20
2023-02-24T10:16:16.985Z,5.20
2023-02-24T10:19:01.223Z,5.30
2023-02-24T10:21:48.584Z,5.20
2023-02-24T10:24:22.992Z,5.20
2023-02-24T10:27:01.152Z,5.20
2023-02-24T10:29:43.357Z,5.20
2023-02-24T10:32:23.761Z,5.40
2023-02-24T10:34:52.812Z,5.40
2023-02-24T10:37:28.733Z,5.30
2023-02-24T10:39:59.414Z,5.40
2023-02-24T10:42:31.674Z,5.40
2023-02-24T10:45:18.067Z,5.50
2023-02-24T10:47:56.649Z,5.40
2023-02-24T10:50:29.834Z,5.40
2023-02-24T10:53:34.482Z,5.40
2023-02-24T10:56:23.552Z,5.40
2023-02-24T10:59:20.682Z,5.40
2023-02-24T11:01:59.328Z,5.30
2023-02-24T11:04:53.915Z,5.30
2023-02-24T11:07:25.594Z,5.30
2023-02-24T11:10:11.395Z,5.30
2023-02-24T11:13:09.362Z,5.30
2023-02-24T11:16:01.128Z,5.30
2023-02-24T11:18:31.142Z,5.20
2023-02-24T11:21:03.456Z,5.20
2023-02-24T11:23:36.414Z,5.10
2023-02-24T11:26:11.515Z,5.10
2023-02-24T11:28:53.294Z,5.10
2023-02-24T11:31:36.611Z,5.00
2023-02-24T11:34:11.563Z,5.00
2023-02-24T11:36:54.582Z,5.00
2023-02-24T11:39:50.730Z,5.10
2023-02-24T11:42:26.053Z,5.00
2023-02-24T11:44:59.876Z,5.20
2023-02-24T11:47:36.964Z,5.00
2023-02-24T11:50:18.710Z,5.00
2023-02-24T11:52:51.054Z,5.30
2023-02-24T11:55:28.305Z,4.90
2023-02-24T11:57:59.326Z,5.00
2023-02-24T12:00:32.168Z,5.00
2023-02-24T12:03:07.375Z,5.00
2023-02-24T12:05:39.178Z,5.10
2023-02-24T12:08:18.841Z,5.20
2023-02-24T12:10:51.499Z,5.30
2023-02-24T12:13:25.647Z,5.30
2023-02-24T12:15:59.123Z,5.30
2023-02-24T12:18:34.285Z,5.30
2023-02-24T12:21:06.895Z,5.30
2023-02-24T12:23:40.342Z,5.20
2023-02-24T12:26:18.413Z,5.20
2023-02-24T12:29:16.733Z,5.20
2023-02-24T12:31:54.365Z,5.20
2023-02-24T12:34:36.186Z,5.20
2023-02-24T12:37:27.417Z,5.20
2023-02-24T12:40:05.857Z,5.00
2023-02-24T12:42:42.448Z,5.10
2023-02-24T12:45:18.819Z,5.10
2023-02-24T12:48:11.041Z,5.10
2023-02-24T12:50:48.927Z,5.10
2023-02-24T12:53:24.341Z,5.10
2023-02-24T12:56:06.501Z,5.30
2023-02-24T12:58:37.766Z,5.20
2023-02-24T13:01:14.559Z,5.20
2023-02-24T13:04:02.296Z,5.10
2023-02-24T13:06:47.226Z,5.20
2023-02-24T13:09:22.022Z,5.20
2023-02-24T13:11:56.109Z,5.20
2023-02-24T13:14:30.115Z,5.10
2023-02-24T13:17:20.146Z,5.20
2023-02-24T13:19:52.412Z,5.20
2023-02-24T13:22:27.350Z,5.20
2023-02-24T13:25:13.628Z,5.20
2023-02-24T13:27:44.825Z,5.20
2023-02-24T13:30:28.216Z,5.20
2023-02-24T13:33:06.083Z,5.20
2023-02-24T13:35:37.683Z,5.20
2023-02-24T13:38:22.849Z,5.30
2023-02-24T13:40:51.126Z,5.20
2023-02-24T13:43:27.520Z,6.10
2023-02-24T13:45:59.342Z,5.20
2023-02-24T13:48:44.531Z,6.30
2023-02-24T13:51:31.199Z,5.20
2023-02-24T13:54:12.645Z,6.70
2023-02-24T13:56:45.837Z,6.10
2023-02-24T13:59:34.967Z,5.80
2023-02-24T14:02:08.046Z,5.20
2023-02-24T14:04:39.850Z,5.20
2023-02-24T14:07:13.479Z,5.10
2023-02-24T14:09:45.957Z,6.00
2023-02-24T14:12:16.513Z,5.20
2023-02-24T14:14:47.085Z,5.20
2023-02-24T14:17:24.571Z,5.30
2023-02-24T14:19:52.620Z,5.80
2023-02-24T14:22:22.219Z,6.40
2023-02-24T14:24:50.176Z,7.30
2023-02-24T14:27:27.160Z,5.40
2023-02-24T14:29:57.250Z,5.40
2023-02-24T14:32:27.905Z,5.50
2023-02-24T14:34:57.377Z,5.60
2023-02-24T14:37:28.013Z,5.40
2023-02-24T14:39:58.555Z,5.50
2023-02-24T14:42:28.127Z,5.40
2023-02-24T14:44:59.603Z,5.50
2023-02-24T14:47:29.778Z,5.50
2023-02-24T14:49:59.919Z,5.40
2023-02-24T14:52:35.377Z,5.60
2023-02-24T14:55:07.717Z,5.40
2023-02-24T14:57:41.135Z,5.30
2023-02-24T15:00:22.018Z,5.30
2023-02-24T15:02:58.334Z,5.30
2023-02-24T15:05:26.417Z,5.30
2023-02-24T15:07:54.746Z,5.40
2023-02-24T15:10:26.274Z,5.30
2023-02-24T15:13:00.754Z,5.30
2023-02-24T15:15:34.206Z,5.30
2023-02-24T15:18:17.584Z,5.40
2023-02-24T15:20:45.671Z,5.20
2023-02-24T15:23:35.533Z,5.30
2023-02-24T15:26:04.605Z,5.20
2023-02-24T15:28:34.453Z,5.20
2023-02-24T15:31:09.088Z,5.20
2023-02-24T15:33:41.420Z,5.20
2023-02-24T15:36:17.838Z,5.10
2023-02-24T15:38:46.904Z,5.10
2023-02-24T15:41:15.731Z,5.10
2023-02-24T15:43:48.599Z,5.00
2023-02-24T15:46:31.295Z,5.10
2023-02-24T15:49:03.175Z,5.00
2023-02-24T15:51:37.081Z,5.00
2023-02-24T15:54:07.380Z,5.10
2023-02-24T15:56:36.476Z,4.90
2023-02-24T15:59:05.994Z,5.00
2023-02-24T16:01:35.770Z,5.00
2023-02-24T16:04:05.166Z,4.90
2023-02-24T16:06:33.997Z,4.90
2023-02-24T16:09:05.403Z,4.80
2023-02-24T16:11:38.703Z,4.80
2023-02-24T16:14:06.826Z,4.80
2023-02-24T16:16:36.479Z,4.80
2023-02-24T16:19:04.610Z,4.80
2023-02-24T16:21:32.912Z,4.80
2023-02-24T16:24:00.990Z,4.80
2023-02-24T16:26:29.170Z,5.00
2023-02-24T16:28:59.185Z,4.90
2023-02-24T16:31:28.147Z,4.80
2023-02-24T16:33:59.132Z,4.80
2023-02-24T16:36:28.743Z,4.80
2023-02-24T16:38:57.240Z,4.80
2023-02-24T16:41:25.482Z,4.80
2023-02-24T16:43:53.505Z,5.00
2023-02-24T16:46:23.903Z,4.80
2023-02-24T16:48:54.147Z,4.80
2023-02-24T16:51:23.599Z,4.80
2023-02-24T16:53:51.635Z,4.60
2023-02-24T16:56:19.981Z,4.90
2023-02-24T16:58:48.344Z,4.70
2023-02-24T17:01:20.900Z,4.70
2023-02-24T17:03:51.973Z,4.70
2023-02-24T17:06:22.100Z,4.70
2023-02-24T17:08:51.897Z,4.60
2023-02-24T17:11:21.825Z,4.60
2023-02-24T17:13:49.984Z,4.70
2023-02-24T17:16:18.082Z,4.60
2023-02-24T17:18:46.157Z,4.70
2023-02-24T17:21:15.135Z,4.70
2023-02-24T17:23:43.565Z,4.70
2023-02-24T17:26:16.024Z,4.70
2023-02-24T17:28:44.527Z,4.70
2023-02-24T17:31:12.763Z,4.70
2023-02-24T17:33:41.570Z,4.70
2023-02-24T17:36:09.641Z,4.70
2023-02-24T17:38:38.032Z,4.60
2023-02-24T17:41:06.442Z,4.60
2023-02-24T17:43:35.829Z,4.60
2023-02-24T17:46:07.021Z,4.70
2023-02-24T17:48:35.489Z,4.70
2023-02-24T17:51:03.906Z,4.60
2023-02-24T17:53:32.334Z,4.70
2023-02-24T17:56:04.626Z,4.60
2023-02-24T17:58:34.035Z,4.50
2023-02-24T18:01:05.673Z,4.60
2023-02-24T18:03:34.918Z,4.70
2023-02-24T18:06:05.624Z,4.60
2023-02-24T18:08:34.493Z,4.60
2023-02-24T18:11:02.955Z,4.60
2023-02-24T18:13:32.094Z,4.60
2023-02-24T18:16:00.825Z,4.60
2023-02-24T18:18:30.382Z,4.70
2023-02-24T18:21:02.843Z,4.60
2023-02-24T18:23:31.384Z,4.60
2023-02-24T18:26:03.224Z,4.60
2023-02-24T18:28:31.417Z,4.60
2023-02-24T18:31:00.799Z,4.60
2023-02-24T18:33:30.815Z,4.60
2023-02-24T18:35:59.834Z,4.60
2023-02-24T18:38:28.347Z,4.60
2023-02-24T18:41:00.105Z,4.60
2023-02-24T18:43:28.246Z,4.60
2023-02-24T18:46:00.278Z,4.60
2023-02-24T18:48:31.280Z,4.60
2023-02-24T18:51:00.502Z,4.60
2023-02-24T18:53:30.877Z,4.60
2023-02-24T18:56:02.441Z,4.60
2023-02-24T18:58:30.591Z,4.60
2023-02-24T19:00:58.635Z,4.50
2023-02-24T19:03:26.865Z,4.50
2023-02-24T19:05:56.207Z,4.50
2023-02-24T19:08:24.848Z,4.50
2023-02-24T19:10:53.071Z,4.50
2023-02-24T19:13:21.138Z,4.50
2023-02-24T19:15:49.105Z,4.50
2023-02-24T19:18:17.711Z,4.50
2023-02-24T19:20:45.917Z,4.60
2023-02-24T19:23:15.402Z,4.50
2023-02-24T19:25:44.317Z,4.50
2023-02-24T19:28:12.393Z,4.50
2023-02-24T19:30:41.048Z,4.50
2023-02-24T19:33:09.813Z,4.50
2023-02-24T19:35:41.821Z,4.50
2023-02-24T19:38:10.545Z,4.50
2023-02-24T19:40:39.916Z,4.40
2023-02-24T19:43:08.154Z,4.50
2023-02-24T19:45:36.359Z,4.40
2023-02-24T19:48:04.548Z,4.50
2023-02-24T19:50:32.616Z,4.40
2023-02-24T19:53:00.807Z,4.40
2023-02-24T19:55:28.888Z,4.50
2023-02-24T19:57:58.316Z,4.40
2023-02-24T20:00:26.566Z,4.40
2023-02-24T20:02:54.574Z,4.40
2023-02-24T20:05:22.762Z,4.50
2023-02-24T20:07:50.819Z,4.40
2023-02-24T20:10:19.387Z,4.50
2023-02-24T20:12:47.473Z,4.30
2023-02-24T20:15:16.924Z,4.30
2023-02-24T20:17:45.438Z,4.40
2023-02-24T20:20:14.253Z,4.50
2023-02-24T20:22:42.795Z,4.40
2023-02-24T20:25:11.042Z,4.40
2023-02-24T20:27:39.002Z,4.40
2023-02-24T20:30:07.851Z,4.40
2023-02-24T20:32:38.331Z,4.40
2023-02-24T20:35:07.352Z,4.40
2023-02-24T20:37:36.762Z,4.40
2023-02-24T20:40:05.472Z,4.50
2023-02-24T20:42:33.703Z,4.40
2023-02-24T20:45:01.778Z,4.30
2023-02-24T20:47:30.076Z,4.30
2023-02-24T20:49:59.662Z,4.30
2023-02-24T20:52:27.887Z,4.30
2023-02-24T20:54:55.903Z,4.30
2023-02-24T20:57:24.036Z,4.20
2023-02-24T21:00:02.994Z,4.30
2023-02-24T21:02:31.535Z,4.30
2023-02-24T21:05:01.255Z,4.40
2023-02-24T21:07:29.704Z,4.20
2023-02-24T21:09:57.844Z,4.20
2023-02-24T21:12:25.907Z,4.20
2023-02-24T21:14:55.479Z,4.40
2023-02-24T21:17:24.094Z,4.20
2023-02-24T21:19:52.140Z,4.30
2023-02-24T21:22:21.726Z,4.50
2023-02-24T21:24:49.813Z,4.30
2023-02-24T21:27:17.825Z,4.20
2023-02-24T21:29:46.591Z,4.20
2023-02-24T21:32:14.793Z,4.10
2023-02-24T21:34:43.197Z,4.20
2023-02-24T21:37:11.327Z,4.30
2023-02-24T21:39:40.794Z,4.20
2023-02-24T21:42:08.880Z,4.20
2023-02-24T21:44:36.999Z,4.20
2023-02-24T21:47:05.150Z,4.20
2023-02-24T21:49:33.238Z,4.20
2023-02-24T21:52:01.574Z,4.20
2023-02-24T21:54:30.888Z,4.20
2023-02-24T21:57:00.360Z,4.20
2023-02-24T21:59:28.458Z,4.30
2023-02-24T22:01:56.562Z,4.20
2023-02-24T22:04:24.969Z,4.20
2023-02-24T22:06:53.676Z,4.30
2023-02-24T22:09:21.690Z,4.20
2023-02-24T22:11:50.507Z,4.10
2023-02-24T22:14:20.555Z,4.20
2023-02-24T22:16:48.669Z,4.10
2023-02-24T22:19:19.170Z,4.30
2023-02-24T22:21:47.999Z,4.40
2023-02-24T22:24:18.083Z,4.10
2023-02-24T22:26:47.004Z,4.10
2023-02-24T22:29:15.042Z,4.30
2023-02-24T22:31:48.250Z,4.00
2023-02-24T22:34:17.566Z,4.00
2023-02-24T22:36:45.886Z,4.00
2023-02-24T22:39:16.690Z,4.10
2023-02-24T22:41:45.609Z,4.10
2023-02-24T22:44:14.448Z,4.10
2023-02-24T22:46:43.857Z,4.10
2023-02-24T22:49:12.412Z,4.20
2023-02-24T22:51:42.278Z,4.00
2023-02-24T22:54:10.401Z,4.20
2023-02-24T22:56:38.576Z,4.00
2023-02-24T22:59:06.609Z,4.00
2023-02-24T23:01:36.942Z,4.20
2023-02-24T23:04:08.483Z,3.80
2023-02-24T23:06:37.634Z,4.00
2023-02-24T23:09:06.874Z,3.80
2023-02-24T23:11:37.560Z,4.00
2023-02-24T23:14:09.965Z,4.00
2023-02-24T23:16:39.448Z,4.10
2023-02-24T23:19:13.142Z,4.00
2023-02-24T23:21:42.820Z,4.00
2023-02-24T23:24:13.472Z,4.10
2023-02-24T23:26:43.696Z,3.90
2023-02-24T23:29:13.604Z,3.90
2023-02-24T23:31:43.097Z,4.00
2023-02-24T23:34:13.534Z,4.00
2023-02-24T23:36:44.302Z,4.00
2023-02-24T23:39:14.766Z,4.00
2023-02-24T23:41:42.917Z,4.00
2023-02-24T23:44:12.382Z,4.00
2023-02-24T23:46:41.740Z,4.20
2023-02-24T23:49:09.974Z,4.10
2023-02-24T23:51:48.091Z,3.90
2023-02-24T23:54:17.216Z,4.00
2023-02-24T23:56:45.416Z,4.00
2023-02-24T23:59:13.678Z,3.90
